Kezdőlap
METAR-TAF:

METAR-TAF

Repülőterek :

Windhoek, Namíbia

földrajzi szélesség: 22-29S, földrajzi hosszúság: 017-28E, magasság: 1715 m

Jelenlegi meteorológiai megfigyelések

A jelentés 41 perccel ezelõtt készült, 05:00 UTC
Nyugati szél 3 kt
Hőmérséklet 5°C
Páratartalom 70%
Légköri nyomás 1028 hPa
Látótávolság 10 km, vagy több
felhőtlen 1500 m magasságban, és nincs gomolyfelhõ

METAR: FYWH 260500Z 26003KT CAVOK 05/00 Q1028 NOSIG

Idő: 07:41 (05:41 UTC)

Előrejelzés

A jelentés 1 órával és 41 perccel ezelõtt készült, 04:00 UTC
Az előrejelzés 26-én 06 óra UTC és 27-én 06 óra UTC között érvényes
Nyugat-északnyugati szél 4 kt
Látótávolság 10 km, vagy több
felhőtlen 1500 m magasságban, és nincs gomolyfelhõ
26-én 08 óra UTC és 26-én 10 óra UTC között fokozatosan kialakuló
Észak-északkeleti szél 17 kt

TAF: FYWH 260400Z 2606/2706 29004KT CAVOK BECMG 2608/2610 02017KT

Meteorológiai megfigyelések és előrejelzések több, mint 4000 repülőtéren (METAR és TAF jelentéseket).

A térképen piros és sárga pontok jelzik az elérhető meteorológiai állomásokat.

Mozgassa az egeret a pont fölött, hogy megjelenjen az állomás neve.

Azután kattintson az időjárási megfigyelések és előrejelzések megtekintéséhez.

A térkép megváltoztatása: kattintson a fekete keresztel jelölt zöld gombra ráközelítéshez, a vonallal jelölt zöld gombra távolításhoz, vagy a zöld nyilakra a szomszédos térképek eléréséhez.


METAR-TAF: